• Join FlightAware (Why Join?)
  • Login
  • US Flag 
03:27PM EDT


 

Airport Tracker/Info


-or-


 

Live Flight TrackerFlight Track Log ✈ UAL4553 ✈ 17-Apr-2014 ✈ KMCI - KEWR

Flight Track Log - Related Links

Times and Time Zones

All times are in EDT time to prevent confusion due to time zone crossing. See the UAL4553 flight status page for this flight to view local times or setup timezone preferences in your user account.

Time Position Orientation Groundspeed Altitude Reporting Facility
EDT Latitude Longitude Course Direction KTS MPH feet Rate Location/Type
01:17PM 39.3333 -94.7167 85° East 163 188 1,900  Level Kansas City TRACON
01:17PM 39.3478 -94.7019 38° Northeast 161 185 2,700 1,560 Climbing Kansas City Center
01:18PM 39.4003 -94.6550 35° Northeast 208 239 4,500 1,800 Climbing Kansas City Center
01:19PM 39.4117 -94.5636 81° East 255 293 6,500 2,040 Climbing Kansas City Center
01:20PM 39.3535 -94.1757 80° East  Level FlightAware Approximate
01:20PM 39.4075 -94.4550 93° East 278 320 8,800  Level Kansas City Center
01:21PM 39.3731 -94.0278 80° East  Level FlightAware Approximate
01:21PM 39.4031 -94.3483 93° East 294 338 10,100  Level Kansas City Center
01:22PM 39.3872 -93.8792 85° East  Level FlightAware Approximate
01:23PM 39.3969 -94.2111 93° East 351 404 11,100  Level Kansas City Center
01:24PM 39.3911 -94.0814 93° East 359 413 12,700 1,440 Climbing Kansas City Center
01:25PM 39.3856 -93.9508 93° East 360 414 14,100 1,320 Climbing Kansas City Center
01:26PM 39.4050 -93.8075 80° East 374 430 15,500 1,260 Climbing Kansas City Center
01:27PM 39.4219 -93.6706 81° East 380 437 16,800 1,200 Climbing Kansas City Center
01:28PM 39.4372 -93.5356 82° East 382 440 18,000 960 Climbing Kansas City Center
01:29PM 39.4544 -93.3975 81° East 385 443 18,800 840 Climbing Kansas City Center
01:30PM 39.4717 -93.2550 81° East 394 453 19,800 900 Climbing Kansas City Center
01:31PM 39.4881 -93.1053 82° East 409 471 20,700 960 Climbing Kansas City Center
01:32PM 39.5106 -92.9200 81° East 425 489 21,800 900 Climbing Kansas City Center
01:33PM 39.5286 -92.7633 81° East 439 505 22,600 780 Climbing Kansas City Center
01:34PM 39.5478 -92.6025 81° East 451 519 23,500 840 Climbing Kansas City Center
01:35PM 39.5653 -92.4406 82° East 455 524 24,400 900 Climbing Kansas City Center
01:36PM 39.5864 -92.2458 82° East 456 525 25,400 900 Climbing Kansas City Center
01:37PM 39.6042 -92.0850 82° East 457 526 26,300 780 Climbing Kansas City Center
01:38PM 39.6214 -91.9239 82° East 457 526 27,100 780 Climbing Kansas City Center
01:39PM 39.6383 -91.7636 82° East 457 526 28,000 900 Climbing Kansas City Center
01:40PM 39.6553 -91.6058 82° East 449 517 29,000 1,020 Climbing Kansas City Center
01:41PM 39.6750 -91.4169 82° East 449 517 30,200 1,020 Climbing Kansas City Center
01:42PM 39.6903 -91.2717 82° East 449 517 31,200 960 Climbing Kansas City Center
01:43PM 39.7061 -91.1114 83° East 449 517 32,200 1,080 Climbing Kansas City Center
01:44PM 39.7258 -90.9192 82° East 449 517 33,500 1,140 Climbing Kansas City Center
01:45PM 39.7378 -90.7575 84° East 449 517 34,600 720 Climbing Kansas City Center
01:46PM 39.7433 -90.5964 87° East 448 516 35,000 180 Climbing Kansas City Center
01:47PM 39.7494 -90.4208 87° East 451 519 35,000  Level Kansas City Center
01:48PM 39.7553 -90.2456 87° East 473 544 35,000  Level Kansas City Center
01:49PM 39.7606 -90.0664 88° East 490 564 35,000  Level Kansas City Center
01:50PM 39.7667 -89.8850 87° East 497 572 35,000  Level Kansas City Center
01:51PM 39.7711 -89.7067 88° East 498 573 35,000  Level Kansas City Center
01:53PM 39.7767 -89.4933 88° East 497 572 35,000  Level Kansas City Center
01:54PM 39.7808 -89.3144 88° East 497 572 35,000  Level Kansas City Center
01:55PM 39.7858 -89.1358 88° East 497 572 35,000  Level Kansas City Center
01:56PM 39.7892 -88.9561 89° East 497 572 35,000  Level Kansas City Center
01:57PM 39.7928 -88.7761 88° East 498 573 35,000  Level Kansas City Center
01:58PM 39.7964 -88.5606 89° East 498 573 35,000  Level Kansas City Center
01:59PM 39.8003 -88.3828 88° East 498 573 35,000  Level Kansas City Center
02:00PM 39.8025 -88.2025 89° East 498 573 35,000  Level Kansas City Center
02:01PM 39.8050 -88.0231 89° East 497 572 35,000  Level Kansas City Center
02:02PM 39.8050 -87.8414 90° East 497 572 35,000  Level Kansas City Center
02:03PM 39.8081 -87.6219 89° East 498 573 35,000  Level Kansas City Center
02:04PM 39.8108 -87.4164 89° East 504 580 35,000  Level Indianapolis Center
02:05PM 39.8128 -87.2353 89° East 504 580 35,000  Level Indianapolis Center
02:06PM 39.8131 -87.0542 90° East 504 580 35,000  Level Indianapolis Center
02:07PM 39.8139 -86.8753 90° East 501 577 35,000  Level Indianapolis Center
02:08PM 39.8142 -86.6961 90° East 501 577 35,000  Level Indianapolis Center
02:09PM 39.8150 -86.5192 90° East 495 570 35,000  Level Indianapolis Center
02:10PM 39.8261 -86.3175 86° East 499 574 35,000  Level Indianapolis Center
02:11PM 39.8594 -86.1594 75° East 501 577 35,000  Level Indianapolis Center
02:12PM 39.9033 -85.9514 75° East 499 574 35,000  Level Indianapolis Center
02:13PM 39.9406 -85.7775 74° East 498 573 35,000  Level Indianapolis Center
02:14PM 39.9761 -85.6044 75° East 498 573 35,000  Level Indianapolis Center
02:15PM 40.0125 -85.4311 75° East 498 573 35,000  Level Indianapolis Center
02:16PM 40.0472 -85.2581 75° East 498 573 35,000  Level Indianapolis Center
02:17PM 40.0819 -85.0861 75° East 495 570 35,000  Level Indianapolis Center
02:18PM 40.1219 -84.8908 75° East 495 570 35,000  Level Indianapolis Center
02:20PM 40.1558 -84.7175 76° East 495 570 35,000  Level Indianapolis Center
02:21PM 40.1900 -84.5433 76° East 495 570 35,000  Level Indianapolis Center
02:22PM 40.2233 -84.3714 76° East 493 567 35,000  Level Indianapolis Center
02:23PM 40.2583 -84.1964 75° East 493 567 35,000  Level Indianapolis Center
02:24PM 40.3106 -83.9942 71° East 493 567 35,000  Level Indianapolis Center
02:25PM 40.3817 -83.8406 59° Northeast 491 565 35,000  Level Indianapolis Center
02:26PM 40.4519 -83.6883 59° Northeast 490 564 35,000  Level Indianapolis Center
02:27PM 40.5211 -83.5339 59° Northeast 489 563 35,000  Level Indianapolis Center
02:28PM 40.5919 -83.3800 59° Northeast 489 563 35,000  Level Indianapolis Center
02:29PM 40.6611 -83.2283 59° Northeast 487 560 35,000  Level Cleveland Center
02:30PM 40.7303 -83.0728 60° Northeast 487 560 35,000  Level Cleveland Center
02:31PM 40.7994 -82.9172 60° Northeast 488 562 35,000  Level Cleveland Center
02:32PM 40.8844 -82.7269 59° Northeast 488 562 35,000  Level Cleveland Center
02:33PM 40.9531 -82.5697 60° Northeast 488 562 35,000  Level Cleveland Center
02:34PM 41.0217 -82.4172 59° Northeast 483 556 35,000  Level Cleveland Center
02:35PM 41.0883 -82.2625 60° Northeast 482 555 35,000  Level Cleveland Center
02:36PM 41.1622 -82.0942 60° Northeast 486 559 35,000  Level Cleveland Center
02:37PM 41.2292 -81.9397 60° Northeast 486 559 35,000  Level Cleveland Center
02:38PM 41.2956 -81.7847 60° Northeast 483 556 35,000  Level Cleveland Center
02:39PM 41.3625 -81.6300 60° Northeast 483 556 35,000  Level Cleveland Center
02:40PM 41.4317 -81.4675 60° Northeast 483 556 35,000  Level Cleveland Center
02:41PM 41.4978 -81.3111 61° Northeast 481 554 35,000  Level Cleveland Center
02:42PM 41.5644 -81.1531 61° Northeast 482 555 35,000  Level Cleveland Center
02:43PM 41.6419 -80.9686 61° Northeast 482 555 35,000  Level Cleveland Center
02:44PM 41.7083 -80.8100 61° Northeast 483 556 35,000  Level Cleveland Center
02:45PM 41.7747 -80.6511 61° Northeast 484 557 35,000  Level Cleveland Center
02:46PM 41.7903 -80.4739 83° East 478 550 35,000  Level Cleveland Center
02:47PM 41.7733 -80.2958 97° East 480 552 35,000  Level Cleveland Center
02:48PM 41.7550 -80.1167 98° East 480 552 35,000  Level Cleveland Center
02:49PM 41.7372 -79.9425 98° East 469 540 35,000  Level Cleveland Center
02:51PM 41.7153 -79.7375 98° East 471 542 35,000  Level Cleveland Center
02:52PM 41.6967 -79.5683 98° East 474 545 35,000  Level Cleveland Center
02:53PM 41.6781 -79.3928 98° East 476 548 35,000  Level Cleveland Center
02:54PM 41.6561 -79.1989 99° East 477 549 35,000  Level Cleveland Center
02:55PM 41.6350 -79.0078 98° East 477 549 35,000  Level Cleveland Center
02:56PM 41.6147 -78.8331 99° East 477 549 35,000  Level Cleveland Center
02:57PM 41.5953 -78.6592 98° East 476 548 35,000 -180 Level Cleveland Center
02:58PM 41.5747 -78.4856 99° East 476 548 34,700 -900 Descending Cleveland Center
02:59PM 41.5547 -78.3125 99° East 475 547 33,200 -1,440 Descending Cleveland Center
03:00PM 41.5331 -78.1367 99° East 477 549 31,800 -1,080 Descending Cleveland Center
03:01PM 41.5067 -77.9267 99° East 479 551 31,000 -420 Descending Cleveland Center
03:02PM 41.4822 -77.7550 101° East 477 549 31,000  Level Cleveland Center
03:03PM 41.4581 -77.5828 101° East 477 549 31,000  Level Cleveland Center
03:04PM 41.4328 -77.4094 101° East 477 549 31,000  Level Cleveland Center
03:05PM 41.4081 -77.2369 101° East 477 549 31,000  Level Cleveland Center
03:06PM 41.3817 -77.0636 101° East 477 549 31,000 -720 Level Cleveland Center
03:07PM 41.3506 -76.8553 101° East 479 551 29,600 -1,800 Descending Cleveland Center
03:08PM 41.3164 -76.6872 105° East 478 550 27,300 -2,520 Descending Cleveland Center
03:09PM 41.2711 -76.5253 110° East 473 544 24,500 -2,700 Descending Cleveland Center
03:10PM 41.2272 -76.3631 110° East 472 543 21,800 -2,520 Descending Cleveland Center
03:11PM 41.1756 -76.1767 110° East 440 506 19,100 -1,920 Descending New York Center
03:12PM 41.1417 -76.0472 109° East 413 475 17,800 -1,740 Descending New York Center
03:13PM 41.0986 -75.8894 110° East 407 468 15,700 -1,920 Descending New York Center
03:14PM 41.0589 -75.7489 111° Southeast 407 468 14,000 -1,380 Descending New York Center
03:15PM 41.0228 -75.6142 110° East 391 450 13,000 -540 Descending New York Center
03:16PM 40.9900 -75.4992 111° Southeast 385 443 13,000 -540 Level New York Center
03:17PM 40.9514 -75.3647 111° Southeast 371 427 12,000 -1,320 Descending New York Center
03:18PM 40.9261 -75.2669 109° East 329 379 10,500 -1,560 Descending New York Center
03:19PM 40.8964 -75.1661 111° Southeast 304 350 8,900 -1,500 Descending New York Center
03:20PM 40.8669 -75.0625 111° Southeast 278 320 7,500 -960 Descending New York Center
03:21PM 40.8411 -74.9706 110° East 272 313 7,000 -300 Descending New York Center
03:22PM 40.8150 -74.8811 111° Southeast 267 307 7,000  Level New York Center
03:23PM 40.7908 -74.7947 110° East 267 307 7,000 -540 Level New York Center
03:24PM 40.7778 -74.6925 100° East 261 300 6,000 -540 Descending New York Center
03:25PM 40.8031 -74.6200 65° Northeast 248 285 6,000  Level New York Center
03:26PM 40.8811 -74.5914 15° North 224 258 6,000  Level New York Center
03:27PM 40.9481 -74.5814 North 244 281 6,000  Level New York Center
03:28PM 41.0261 -74.5528 15° North 261 300 6,000 -360 Level New York Center
03:29PM 41.0678 -74.4808 52° Northeast 240 276 5,300 -540 Descending New York Center
03:30PM 41.0744 -74.4014 84° East 211 243 5,000 -180 Descending New York Center
03:31PM 41.0439 -74.3144 115° Southeast 223 257 5,000  Level New York Center
03:32PM 41.0167 -74.2167 110° East 242 278 5,000 -60 Level New York TRACON
03:33PM 40.9833 -74.1500 124° Southeast 205 236 4,900 -480 Descending New York TRACON
03:34PM 40.9667 -74.0833 108° East 184 212 4,000 -900 Descending New York TRACON
03:35PM 40.9167 -74.0500 153° Southeast 189 217 3,100 -540 Descending New York TRACON
03:36PM 40.8667 -74.0667 194° South 181 208 3,000 -300 Descending New York TRACON
03:37PM 40.8167 -74.0833 194° South 183 211 2,500 -480 Descending New York TRACON
03:38PM 40.7667 -74.0833 180° South 173 199 2,000 -600 Descending New York TRACON
03:39PM 40.7333 -74.0833 180° South 148 170 1,400 -780 Descending New York TRACON
03:40PM 40.7000 -74.1167 217° Southwest 137 158 500 -900 Descending New York TRACON